LELC/MJV METAR and TAF weather

Enter ICAO airport designator
Station Type Date Time Source
LELC METAR 2021/05/14 13:00 UTC NOAA

LELC 141300Z 11009KT 070V150 CAVOK 25/11 Q1016 NOSIG


Station Type Date Time Source
LELC Decoded METAR 2021/05/14 13:00 UTC NOAA

Murcia / San Javier, Spain (LELC) 37-47N 000-48W 3M
May 14, 2021 - 09:00 AM EDT / 2021.05.14 1300 UTC
Wind: from the ESE (110 degrees) at 10 MPH (9 KT) (direction variable):0
Visibility: greater than 7 mile(s):0
Temperature: 77 F (25 C)
Dew Point: 51 F (11 C)
Relative Humidity: 41%
Pressure (altimeter): 30.00 in. Hg (1016 hPa)
ob: LELC 141300Z 11009KT 070V150 CAVOK 25/11 Q1016 NOSIG
cycle: 13

Station Type Date Time Source
LELC TAF 2021/05/14 12:27 UTC NOAA

TAF LELC 141100Z 1412/1512 33010KT CAVOK TX27/1412Z TN14/1505Z
BECMG 1412/1414 12012KT PROB30
TEMPO 1413/1415 12015G25KT
BECMG 1418/1421 VRB02KT PROB40
TEMPO 1500/1507 3000 BR SCT005
BECMG 1509/1512 20010KT

Example: see airport list